createdAt,value
2023-04-16T00:01:45.788Z,33.20
2023-04-16T00:04:12.504Z,34.08
2023-04-16T00:06:39.201Z,32.67
2023-04-16T00:09:05.839Z,32.00
2023-04-16T00:11:33.825Z,30.77
2023-04-16T00:14:00.418Z,36.92
2023-04-16T00:16:27.958Z,36.78
2023-04-16T00:18:54.635Z,31.05
2023-04-16T00:21:21.244Z,30.90
2023-04-16T00:23:47.823Z,35.63
2023-04-16T00:26:14.389Z,33.78
2023-04-16T00:28:42.371Z,31.27
2023-04-16T00:31:09.053Z,31.02
2023-04-16T00:33:35.734Z,35.55
2023-04-16T00:36:02.403Z,37.88
2023-04-16T00:38:29.015Z,33.30
2023-04-16T00:40:55.747Z,34.42
2023-04-16T00:43:23.640Z,34.42
2023-04-16T00:45:53.158Z,30.08
2023-04-16T00:48:20.569Z,35.60
2023-04-16T00:50:47.383Z,34.33
2023-04-16T00:53:14.294Z,36.67
2023-04-16T00:55:41.165Z,33.97
2023-04-16T00:58:07.948Z,30.30
2023-04-16T01:00:34.514Z,36.67
2023-04-16T01:03:02.755Z,35.38
2023-04-16T01:05:30.180Z,39.42
2023-04-16T01:07:59.063Z,29.65
2023-04-16T01:10:25.870Z,35.88
2023-04-16T01:12:52.422Z,35.80
2023-04-16T01:15:19.298Z,36.33
2023-04-16T01:17:46.165Z,29.27
2023-04-16T01:20:14.565Z,35.88
2023-04-16T01:22:42.528Z,30.20
2023-04-16T01:25:13.352Z,34.30
2023-04-16T01:27:39.983Z,29.20
2023-04-16T01:30:07.977Z,27.52
2023-04-16T01:32:34.592Z,31.25
2023-04-16T01:35:01.312Z,34.78
2023-04-16T01:37:28.227Z,33.15
2023-04-16T01:39:56.327Z,30.65
2023-04-16T01:42:22.913Z,33.38
2023-04-16T01:44:49.494Z,36.63
2023-04-16T01:47:16.112Z,35.72
2023-04-16T01:49:43.185Z,40.90
2023-04-16T01:52:09.835Z,33.55
2023-04-16T01:54:36.430Z,36.38
2023-04-16T01:57:04.435Z,37.45
2023-04-16T01:59:30.997Z,36.13
2023-04-16T02:02:00.789Z,34.58
2023-04-16T02:04:27.454Z,38.92
2023-04-16T02:06:54.071Z,45.60
2023-04-16T02:09:20.669Z,36.50
2023-04-16T02:11:47.262Z,34.13
2023-04-16T02:14:15.301Z,36.05
2023-04-16T02:16:41.926Z,38.13
2023-04-16T02:19:08.846Z,38.30
2023-04-16T02:21:35.537Z,40.15
2023-04-16T02:24:02.157Z,40.22
2023-04-16T02:26:28.734Z,38.70
2023-04-16T02:28:55.329Z,36.60
2023-04-16T02:31:23.391Z,44.70
2023-04-16T02:33:50.094Z,37.63
2023-04-16T02:36:16.771Z,41.67
2023-04-16T02:38:43.310Z,42.33
2023-04-16T02:41:10.004Z,38.72
2023-04-16T02:43:36.732Z,41.20
2023-04-16T02:46:03.450Z,45.78
2023-04-16T02:48:31.933Z,39.88
2023-04-16T02:50:58.718Z,38.95
2023-04-16T02:53:25.350Z,40.33
2023-04-16T02:55:53.600Z,41.70
2023-04-16T02:58:20.365Z,46.08
2023-04-16T03:00:47.402Z,46.40
2023-04-16T03:03:14.369Z,45.80
2023-04-16T03:05:42.871Z,43.58
2023-04-16T03:08:09.576Z,50.95
2023-04-16T03:10:36.259Z,43.80
2023-04-16T03:13:03.725Z,39.03
2023-04-16T03:15:31.091Z,44.85
2023-04-16T03:17:57.895Z,41.88
2023-04-16T03:20:24.637Z,39.17
2023-04-16T03:22:52.644Z,39.90
2023-04-16T03:25:19.346Z,39.40
2023-04-16T03:27:46.009Z,43.40
2023-04-16T03:30:13.547Z,43.05
2023-04-16T03:32:40.795Z,43.45
2023-04-16T03:35:08.540Z,38.33
2023-04-16T03:37:35.790Z,44.35
2023-04-16T03:40:04.192Z,41.88
2023-04-16T03:42:30.808Z,40.30
2023-04-16T03:44:57.368Z,48.47
2023-04-16T03:47:23.967Z,44.92
2023-04-16T03:49:50.831Z,41.05
2023-04-16T03:52:17.420Z,40.47
2023-04-16T03:54:44.037Z,43.83
2023-04-16T03:57:11.995Z,43.97
2023-04-16T03:59:38.597Z,42.05
2023-04-16T04:02:05.289Z,40.30
2023-04-16T04:04:32.281Z,49.78
2023-04-16T04:06:58.999Z,48.83
2023-04-16T04:09:25.593Z,38.22
2023-04-16T04:11:52.157Z,40.75
2023-04-16T04:14:20.218Z,41.30
2023-04-16T04:16:46.853Z,42.90
2023-04-16T04:19:13.553Z,40.90
2023-04-16T04:21:40.073Z,47.08
2023-04-16T04:24:06.644Z,39.08
2023-04-16T04:26:33.275Z,36.92
2023-04-16T04:28:59.908Z,42.50
2023-04-16T04:31:27.938Z,41.83
2023-04-16T04:33:54.639Z,42.65
2023-04-16T04:36:21.206Z,39.95
2023-04-16T04:38:47.857Z,42.53
2023-04-16T04:41:14.439Z,42.80
2023-04-16T04:43:41.048Z,42.05
2023-04-16T04:46:07.692Z,42.85
2023-04-16T04:48:35.855Z,35.92
2023-04-16T04:51:04.739Z,44.15
2023-04-16T04:53:31.731Z,40.92
2023-04-16T04:56:05.497Z,47.17
2023-04-16T04:58:38.628Z,34.88
2023-04-16T05:01:05.347Z,47.85
2023-04-16T05:03:32.076Z,40.65
2023-04-16T05:06:00.112Z,40.13
2023-04-16T05:08:26.689Z,38.10
2023-04-16T05:10:53.301Z,37.25
2023-04-16T05:13:19.935Z,40.35
2023-04-16T05:15:46.706Z,38.97
2023-04-16T05:18:13.248Z,44.88
2023-04-16T05:20:39.805Z,39.22
2023-04-16T05:23:07.900Z,40.20
2023-04-16T05:25:34.851Z,37.22
2023-04-16T05:28:01.490Z,42.72
2023-04-16T05:30:28.113Z,36.22
2023-04-16T05:32:54.709Z,44.72
2023-04-16T05:35:21.518Z,40.25
2023-04-16T05:37:48.103Z,38.47
2023-04-16T05:40:16.305Z,36.75
2023-04-16T05:42:42.902Z,36.40
2023-04-16T05:45:10.461Z,45.78
2023-04-16T05:47:37.328Z,36.90
2023-04-16T05:50:04.355Z,37.40
2023-04-16T05:52:30.951Z,38.10
2023-04-16T05:54:57.512Z,37.45
2023-04-16T05:57:25.643Z,46.45
2023-04-16T05:59:52.211Z,35.70
2023-04-16T06:02:19.525Z,41.38
2023-04-16T06:04:46.205Z,37.22
2023-04-16T06:07:12.795Z,38.22
2023-04-16T06:09:39.394Z,41.83
2023-04-16T06:12:06.065Z,33.97
2023-04-16T06:14:34.016Z,35.10
2023-04-16T06:17:00.621Z,37.90
2023-04-16T06:19:27.213Z,39.08
2023-04-16T06:21:54.237Z,40.63
2023-04-16T06:24:20.877Z,39.80
2023-04-16T06:26:47.479Z,37.28
2023-04-16T06:29:14.014Z,33.20
2023-04-16T06:31:42.246Z,33.47
2023-04-16T06:34:09.256Z,43.13
2023-04-16T06:36:35.874Z,39.35
2023-04-16T06:39:02.445Z,35.13
2023-04-16T06:41:29.035Z,36.30
2023-04-16T06:43:55.747Z,32.40
2023-04-16T06:46:22.416Z,34.80
2023-04-16T06:48:50.612Z,34.25
2023-04-16T06:51:17.237Z,33.45
2023-04-16T06:53:43.866Z,34.10
2023-04-16T06:56:10.426Z,33.10
2023-04-16T06:58:37.215Z,30.40
2023-04-16T07:01:04.433Z,33.47
2023-04-16T07:03:31.588Z,31.60
2023-04-16T07:05:59.824Z,31.70
2023-04-16T07:08:26.485Z,32.72
2023-04-16T07:10:54.206Z,32.38
2023-04-16T07:13:21.121Z,31.10
2023-04-16T07:15:47.985Z,29.45
2023-04-16T07:18:14.710Z,30.05
2023-04-16T07:20:41.458Z,33.65
2023-04-16T07:23:09.427Z,39.97
2023-04-16T07:25:36.030Z,28.92
2023-04-16T07:28:03.553Z,34.03
2023-04-16T07:30:30.137Z,35.63
2023-04-16T07:32:57.073Z,36.72
2023-04-16T07:35:23.758Z,33.65
2023-04-16T07:37:50.348Z,36.95
2023-04-16T07:40:18.392Z,34.15
2023-04-16T07:42:44.989Z,33.97
2023-04-16T07:45:11.952Z,34.92
2023-04-16T07:47:38.623Z,34.50
2023-04-16T07:50:06.637Z,31.45
2023-04-16T07:52:33.269Z,30.35
2023-04-16T07:54:59.799Z,36.38
2023-04-16T07:57:27.984Z,32.42
2023-04-16T07:59:54.555Z,33.10
2023-04-16T08:02:21.280Z,32.28
2023-04-16T08:04:48.180Z,31.65
2023-04-16T08:07:14.924Z,29.70
2023-04-16T08:09:48.178Z,28.63
2023-04-16T08:12:14.964Z,26.10
2023-04-16T08:14:43.107Z,23.42
2023-04-16T08:17:09.694Z,27.27
2023-04-16T08:19:36.332Z,26.30
2023-04-16T08:22:02.994Z,25.77
2023-04-16T08:24:29.735Z,26.63
2023-04-16T08:27:02.466Z,27.15
2023-04-16T08:29:38.217Z,28.42
2023-04-16T08:32:06.823Z,30.70
2023-04-16T08:34:33.445Z,26.75
2023-04-16T08:37:00.046Z,27.50
2023-04-16T08:39:26.630Z,30.90
2023-04-16T08:41:54.341Z,30.20
2023-04-16T08:44:25.767Z,34.53
2023-04-16T08:46:53.909Z,29.70
2023-04-16T08:49:22.088Z,29.33
2023-04-16T08:51:50.949Z,25.75
2023-04-16T08:54:26.431Z,28.70
2023-04-16T08:56:53.979Z,27.65
2023-04-16T08:59:21.815Z,26.85
2023-04-16T09:01:48.775Z,25.95
2023-04-16T09:04:16.321Z,29.42
2023-04-16T09:06:45.892Z,26.15
2023-04-16T09:09:13.008Z,22.88
2023-04-16T09:11:39.572Z,26.08
2023-04-16T09:14:09.726Z,23.67
2023-04-16T09:16:36.718Z,18.38
2023-04-16T09:19:03.381Z,20.55
2023-04-16T09:21:30.173Z,19.23
2023-04-16T09:23:59.708Z,20.35
2023-04-16T09:26:27.742Z,18.88
2023-04-16T09:28:54.369Z,16.25
2023-04-16T09:31:21.687Z,18.55
2023-04-16T09:34:02.172Z,19.15
2023-04-16T09:36:29.174Z,17.40
2023-04-16T09:38:57.491Z,17.58
2023-04-16T09:41:27.540Z,22.98
2023-04-16T09:43:55.254Z,22.30
2023-04-16T09:46:22.135Z,18.70
2023-04-16T09:48:48.855Z,18.15
2023-04-16T09:51:15.642Z,16.45
2023-04-16T09:53:42.270Z,17.80
2023-04-16T09:56:09.178Z,15.73
2023-04-16T09:58:37.494Z,17.40
2023-04-16T10:01:07.811Z,17.05
2023-04-16T10:03:37.270Z,18.92
2023-04-16T10:06:16.046Z,19.67
2023-04-16T10:08:49.659Z,17.60
2023-04-16T10:11:17.666Z,19.98
2023-04-16T10:13:46.211Z,19.45
2023-04-16T10:16:13.241Z,19.58
2023-04-16T10:18:41.677Z,19.83
2023-04-16T10:21:08.827Z,20.00
2023-04-16T10:23:36.275Z,18.60
2023-04-16T10:26:03.378Z,19.73
2023-04-16T10:28:30.928Z,19.52
2023-04-16T10:31:00.775Z,19.65
2023-04-16T10:33:29.387Z,19.05
2023-04-16T10:36:08.219Z,18.48
2023-04-16T10:38:37.839Z,21.42
2023-04-16T10:41:06.203Z,19.25
2023-04-16T10:43:38.476Z,21.25
2023-04-16T10:46:20.474Z,18.90
2023-04-16T10:48:50.105Z,24.00
2023-04-16T10:51:25.457Z,21.92
2023-04-16T10:53:53.792Z,19.83
2023-04-16T10:56:23.748Z,21.27
2023-04-16T10:58:50.440Z,21.10
2023-04-16T11:01:17.303Z,19.80
2023-04-16T11:03:47.191Z,19.00
2023-04-16T11:06:15.728Z,19.10
2023-04-16T11:08:53.895Z,18.05
2023-04-16T11:11:22.367Z,18.77
2023-04-16T11:13:49.295Z,19.25
2023-04-16T11:16:16.848Z,20.45
2023-04-16T11:18:51.108Z,20.38
2023-04-16T11:21:19.427Z,18.45
2023-04-16T11:23:47.467Z,23.40
2023-04-16T11:26:24.790Z,16.63
2023-04-16T11:28:51.660Z,17.48
2023-04-16T11:31:18.438Z,19.95
2023-04-16T11:33:46.572Z,18.70
2023-04-16T11:36:13.272Z,16.73
2023-04-16T11:38:39.894Z,16.90
2023-04-16T11:41:07.128Z,18.40
2023-04-16T11:43:33.836Z,18.15
2023-04-16T11:46:07.479Z,20.40
2023-04-16T11:48:48.582Z,15.98
2023-04-16T11:51:15.616Z,19.27
2023-04-16T11:53:47.207Z,19.08
2023-04-16T11:56:14.766Z,17.05
2023-04-16T11:58:42.484Z,17.55
2023-04-16T12:01:10.271Z,19.15
2023-04-16T12:03:43.118Z,18.38
2023-04-16T12:06:11.544Z,15.23
2023-04-16T12:08:38.333Z,18.45
2023-04-16T12:11:05.090Z,17.58
2023-04-16T12:13:31.795Z,15.40
2023-04-16T12:15:58.418Z,17.80
2023-04-16T12:18:26.213Z,15.65
2023-04-16T12:20:53.094Z,15.48
2023-04-16T12:23:26.164Z,15.48
2023-04-16T12:25:53.553Z,16.77
2023-04-16T12:28:31.263Z,17.33
2023-04-16T12:30:58.145Z,16.77
2023-04-16T12:33:25.237Z,18.90
2023-04-16T12:35:51.993Z,15.63
2023-04-16T12:38:18.813Z,15.75
2023-04-16T12:40:47.114Z,20.38
2023-04-16T12:43:13.944Z,17.98
2023-04-16T12:45:41.113Z,17.77
2023-04-16T12:48:07.851Z,18.20
2023-04-16T12:50:34.729Z,20.38
2023-04-16T12:53:01.475Z,19.05
2023-04-16T12:55:29.523Z,18.50
2023-04-16T12:57:57.576Z,17.58
2023-04-16T13:00:24.330Z,18.77
2023-04-16T13:02:51.239Z,20.00
2023-04-16T13:05:18.053Z,20.48
2023-04-16T13:07:44.916Z,20.63
2023-04-16T13:10:11.897Z,17.52
2023-04-16T13:12:38.576Z,15.55
2023-04-16T13:15:07.845Z,18.20
2023-04-16T13:17:34.548Z,17.58
2023-04-16T13:20:01.194Z,15.18
2023-04-16T13:22:28.380Z,15.60
2023-04-16T13:24:55.474Z,15.40
2023-04-16T13:27:22.169Z,15.07
2023-04-16T13:29:49.034Z,17.60
2023-04-16T13:32:17.512Z,16.05
2023-04-16T13:34:44.736Z,15.23
2023-04-16T13:37:11.504Z,16.42
2023-04-16T13:39:38.231Z,14.93
2023-04-16T13:42:05.098Z,13.90
2023-04-16T13:44:31.733Z,28.20
2023-04-16T13:46:58.804Z,15.00
2023-04-16T13:49:26.965Z,15.40
2023-04-16T13:51:53.566Z,12.25
2023-04-16T13:54:20.291Z,12.55
2023-04-16T13:56:47.240Z,11.57
2023-04-16T13:59:14.184Z,11.75
2023-04-16T14:01:40.930Z,13.35
2023-04-16T14:04:07.908Z,11.05
2023-04-16T14:06:35.999Z,11.52
2023-04-16T14:09:02.665Z,7.72
2023-04-16T14:11:29.333Z,9.57
2023-04-16T14:13:56.145Z,10.43
2023-04-16T14:16:22.984Z,12.63
2023-04-16T14:18:49.770Z,10.00
2023-04-16T14:21:16.514Z,10.32
2023-04-16T14:23:45.137Z,8.82
2023-04-16T14:26:11.983Z,9.43
2023-04-16T14:28:38.752Z,11.93
2023-04-16T14:31:05.397Z,11.75
2023-04-16T14:33:32.077Z,10.02
2023-04-16T14:36:00.072Z,11.18
2023-04-16T14:38:28.797Z,11.43
2023-04-16T14:40:56.902Z,11.68
2023-04-16T14:43:23.622Z,8.52
2023-04-16T14:45:50.298Z,12.70
2023-04-16T14:48:17.176Z,13.43
2023-04-16T14:50:44.149Z,11.95
2023-04-16T14:53:11.375Z,11.85
2023-04-16T14:55:38.141Z,11.65
2023-04-16T14:58:06.203Z,11.23
2023-04-16T15:00:35.062Z,10.68
2023-04-16T15:03:01.964Z,10.40
2023-04-16T15:05:29.930Z,9.48
2023-04-16T15:07:56.642Z,10.57
2023-04-16T15:10:23.315Z,10.50
2023-04-16T15:12:49.941Z,9.88
2023-04-16T15:15:17.975Z,8.65
2023-04-16T15:17:45.333Z,9.25
2023-04-16T15:20:12.866Z,9.77
2023-04-16T15:22:40.120Z,9.23
2023-04-16T15:25:07.636Z,11.90
2023-04-16T15:27:34.619Z,10.85
2023-04-16T15:30:01.299Z,8.30
2023-04-16T15:32:29.332Z,12.30
2023-04-16T15:34:56.023Z,7.40
2023-04-16T15:37:23.459Z,11.25
2023-04-16T15:39:50.259Z,10.55
2023-04-16T15:42:17.322Z,10.48
2023-04-16T15:44:44.250Z,10.55
2023-04-16T15:47:10.958Z,9.43
2023-04-16T15:49:38.990Z,9.82
2023-04-16T15:52:05.744Z,9.05
2023-04-16T15:54:32.465Z,7.35
2023-04-16T15:56:59.333Z,7.20
2023-04-16T15:59:26.681Z,7.50
2023-04-16T16:01:53.478Z,10.80
2023-04-16T16:04:20.589Z,7.63
2023-04-16T16:06:49.009Z,8.52
2023-04-16T16:09:15.742Z,5.25
2023-04-16T16:11:42.401Z,6.13
2023-04-16T16:14:09.211Z,8.68
2023-04-16T16:16:36.014Z,8.90
2023-04-16T16:19:02.814Z,6.32
2023-04-16T16:21:30.222Z,5.63
2023-04-16T16:23:58.382Z,5.95
2023-04-16T16:26:25.130Z,4.97
2023-04-16T16:28:51.890Z,5.10
2023-04-16T16:31:18.558Z,5.90
2023-04-16T16:33:45.436Z,3.78
2023-04-16T16:36:12.323Z,6.05
2023-04-16T16:38:39.261Z,10.27
2023-04-16T16:41:07.502Z,20.58
2023-04-16T16:43:34.927Z,13.38
2023-04-16T16:46:01.698Z,11.13
2023-04-16T16:48:29.050Z,4.53
2023-04-16T16:50:55.870Z,3.70
2023-04-16T16:53:22.690Z,4.43
2023-04-16T16:55:49.235Z,5.70
2023-04-16T16:58:17.414Z,5.57
2023-04-16T17:00:44.209Z,5.68
2023-04-16T17:03:11.419Z,4.63
2023-04-16T17:05:38.333Z,5.88
2023-04-16T17:08:05.326Z,7.28
2023-04-16T17:10:32.056Z,12.68
2023-04-16T17:12:58.862Z,8.93
2023-04-16T17:15:27.110Z,7.95
2023-04-16T17:17:54.050Z,10.73
2023-04-16T17:20:21.007Z,11.60
2023-04-16T17:22:47.774Z,6.45
2023-04-16T17:25:14.695Z,7.43
2023-04-16T17:27:41.478Z,8.35
2023-04-16T17:30:09.123Z,8.23
2023-04-16T17:32:37.376Z,10.65
2023-04-16T17:35:04.828Z,11.25
2023-04-16T17:37:31.925Z,9.00
2023-04-16T17:39:58.634Z,9.02
2023-04-16T17:42:25.326Z,7.40
2023-04-16T17:44:52.105Z,8.35
2023-04-16T17:47:18.858Z,9.13
2023-04-16T17:49:47.012Z,7.40
2023-04-16T17:52:14.065Z,12.30
2023-04-16T17:54:41.740Z,17.73
2023-04-16T17:57:08.461Z,14.65
2023-04-16T17:59:35.156Z,18.33
2023-04-16T18:02:02.058Z,21.45
2023-04-16T18:04:29.169Z,18.83
2023-04-16T18:06:57.981Z,13.73
2023-04-16T18:09:24.818Z,12.63
2023-04-16T18:11:51.595Z,14.50
2023-04-16T18:14:18.398Z,11.95
2023-04-16T18:16:46.676Z,10.75
2023-04-16T18:19:13.354Z,12.65
2023-04-16T18:21:40.024Z,14.30
2023-04-16T18:24:08.882Z,12.45
2023-04-16T18:26:35.934Z,11.82
2023-04-16T18:29:03.922Z,13.32
2023-04-16T18:31:30.914Z,10.82
2023-04-16T18:33:58.574Z,12.88
2023-04-16T18:36:25.723Z,15.23
2023-04-16T18:39:00.270Z,12.10
2023-04-16T18:41:30.647Z,13.82
2023-04-16T18:43:57.465Z,14.98
2023-04-16T18:46:24.346Z,16.63
2023-04-16T18:48:51.174Z,14.00
2023-04-16T18:51:17.902Z,12.75
2023-04-16T18:53:44.715Z,17.55
2023-04-16T18:56:11.488Z,13.45
2023-04-16T18:58:39.621Z,12.27
2023-04-16T19:01:06.203Z,14.18
2023-04-16T19:03:32.952Z,14.35
2023-04-16T19:05:59.682Z,11.25
2023-04-16T19:08:26.260Z,13.75
2023-04-16T19:10:52.964Z,12.88
2023-04-16T19:13:19.555Z,14.73
2023-04-16T19:15:47.797Z,13.18
2023-04-16T19:18:14.522Z,12.93
2023-04-16T19:20:41.242Z,12.98
2023-04-16T19:23:07.817Z,13.55
2023-04-16T19:25:34.825Z,10.10
2023-04-16T19:28:01.419Z,9.88
2023-04-16T19:30:28.159Z,15.57
2023-04-16T19:32:56.135Z,9.82
2023-04-16T19:35:23.115Z,10.73
2023-04-16T19:37:50.057Z,13.18
2023-04-16T19:40:16.836Z,8.15
2023-04-16T19:42:43.418Z,9.77
2023-04-16T19:45:10.261Z,9.00
2023-04-16T19:47:36.884Z,9.07
2023-04-16T19:50:05.557Z,11.38
2023-04-16T19:52:32.120Z,10.55
2023-04-16T19:54:58.838Z,8.88
2023-04-16T19:57:25.460Z,9.65
2023-04-16T19:59:54.062Z,10.35
2023-04-16T20:02:21.773Z,8.18
2023-04-16T20:04:48.483Z,8.00
2023-04-16T20:07:16.450Z,8.38
2023-04-16T20:09:43.057Z,12.52
2023-04-16T20:12:09.633Z,10.60
2023-04-16T20:14:36.255Z,9.57
2023-04-16T20:17:03.247Z,9.07
2023-04-16T20:19:29.862Z,10.48
2023-04-16T20:21:56.522Z,8.48
2023-04-16T20:24:24.689Z,10.25
2023-04-16T20:26:51.509Z,8.45
2023-04-16T20:29:18.041Z,7.50
2023-04-16T20:31:44.607Z,8.60
2023-04-16T20:34:11.269Z,8.70
2023-04-16T20:36:37.878Z,9.07
2023-04-16T20:39:04.430Z,9.57
2023-04-16T20:41:32.500Z,8.25
2023-04-16T20:43:59.133Z,8.85
2023-04-16T20:46:25.723Z,8.43
2023-04-16T20:48:52.380Z,7.82
2023-04-16T20:51:18.957Z,7.82
2023-04-16T20:53:45.550Z,8.27
2023-04-16T20:56:12.343Z,10.00
2023-04-16T20:58:40.841Z,9.40
2023-04-16T21:01:07.561Z,10.55
2023-04-16T21:03:34.473Z,6.57
2023-04-16T21:06:01.231Z,10.25
2023-04-16T21:08:27.979Z,8.50
2023-04-16T21:10:54.766Z,8.85
2023-04-16T21:13:21.396Z,7.20
2023-04-16T21:15:49.470Z,10.20
2023-04-16T21:18:16.291Z,9.30
2023-04-16T21:20:42.848Z,9.70
2023-04-16T21:23:09.481Z,9.20
2023-04-16T21:25:36.091Z,10.10
2023-04-16T21:28:02.878Z,9.88
2023-04-16T21:30:29.768Z,11.90
2023-04-16T21:32:57.914Z,9.93
2023-04-16T21:35:24.610Z,10.48
2023-04-16T21:37:51.196Z,11.60
2023-04-16T21:40:17.972Z,7.70
2023-04-16T21:42:44.621Z,15.18
2023-04-16T21:45:12.148Z,9.70
2023-04-16T21:47:38.916Z,10.60
2023-04-16T21:50:08.299Z,13.85
2023-04-16T21:52:34.976Z,8.55
2023-04-16T21:55:01.492Z,7.95
2023-04-16T21:57:28.138Z,10.38
2023-04-16T21:59:55.123Z,10.45
2023-04-16T22:02:21.979Z,10.45
2023-04-16T22:04:48.726Z,11.85
2023-04-16T22:07:16.816Z,10.35
2023-04-16T22:09:43.510Z,9.98
2023-04-16T22:12:10.121Z,10.95
2023-04-16T22:14:39.237Z,10.98
2023-04-16T22:17:08.887Z,10.07
2023-04-16T22:19:35.501Z,13.55
2023-04-16T22:22:02.061Z,16.13
2023-04-16T22:24:30.167Z,11.93
2023-04-16T22:26:56.748Z,11.70
2023-04-16T22:29:23.393Z,11.18
2023-04-16T22:31:49.992Z,11.93
2023-04-16T22:34:16.670Z,13.80
2023-04-16T22:36:43.264Z,12.85
2023-04-16T22:39:10.079Z,12.23
2023-04-16T22:41:38.443Z,12.65
2023-04-16T22:44:05.222Z,13.73
2023-04-16T22:46:31.972Z,13.52
2023-04-16T22:48:58.613Z,12.65
2023-04-16T22:51:25.154Z,18.08
2023-04-16T22:53:51.821Z,11.52
2023-04-16T22:56:18.716Z,13.85
2023-04-16T22:58:46.724Z,11.02
2023-04-16T23:01:13.345Z,12.02
2023-04-16T23:03:40.094Z,13.43
2023-04-16T23:06:07.010Z,12.32
2023-04-16T23:08:33.672Z,16.08
2023-04-16T23:11:00.302Z,11.30
2023-04-16T23:13:26.948Z,13.43
2023-04-16T23:15:55.003Z,13.13
2023-04-16T23:18:21.720Z,13.20
2023-04-16T23:20:50.760Z,15.77
2023-04-16T23:23:17.558Z,14.65
2023-04-16T23:25:44.188Z,12.85
2023-04-16T23:28:10.775Z,14.30
2023-04-16T23:30:37.390Z,13.70
2023-04-16T23:33:05.500Z,14.63
2023-04-16T23:35:32.528Z,13.18
2023-04-16T23:37:59.145Z,15.20
2023-04-16T23:40:25.763Z,12.00
2023-04-16T23:42:52.339Z,13.73
2023-04-16T23:45:19.068Z,16.63
2023-04-16T23:47:45.809Z,17.60
2023-04-16T23:50:13.885Z,16.85
2023-04-16T23:52:40.472Z,18.25
2023-04-16T23:55:07.818Z,15.85
2023-04-16T23:57:34.441Z,18.30
